Main page
METAR-TAF:

METAR-TAF

Airports :

Gibraltar International Airport

Gibraltar, Gibraltar

latitude: 36-09N, longitude: 005-21W, elevation: 5 m

Current weather observation

The report was made 27 minutes ago, at 03:50 UTC
Wind 24 kt from the East
Temperature 15°C
Humidity 77%
Pressure 1023 hPa
Visibility 10 km or more

METAR: LXGB 270350Z AUTO 09024KT 9999 FEW020/// BKN043/// 15/11 Q1023

Time: 05:17 (04:17 UTC)

Forecast

The report was made 17 hours and 32 minutes ago, at 10:45 UTC
Forecast valid from 26 at 12 UTC to 26 at 21 UTC
Wind 18 kt from the East with gusts up to 28 kt
Visibility 10 km or more
Few clouds at a height of 1000 ft
Broken clouds at a height of 2500 ft
Temporary
from 26 at 12 UTC to 26 at 18 UTC
Visibility: 6000 m
Broken clouds at a height of 1400 ft
light rain, drizzle

TAF: LXGB 261045Z 2612/2621 10018G28KT 9999 FEW010 BKN025 520002 TEMPO 2612/2618 6000 -RADZ BKN014

Weather observations and forecasts of more than 4000 airports (METAR and TAF reports).

The available stations are represented by yellow and red dots on the map.

Hover mouse over dot to see the name of the station.

Then click to see weather observations and forecasts.

To change the map : click on the green buttons with a black cross to zoom in, on the green button with a dash to zoom out, or on the green arrows for adjacent maps.


METAR-TAF: